Terminal Aerodrome Forecast
Issued by NWS

Home | Current Version | Previous Version | Graphics & Text | Print | Product List | Glossary On
Versions: 1 2 3 4 5 6 7 8 9 10 11 12 13 14 15 16 17 18 19 20
000
FTUS43 KMPX 190500
TAFAXN
TAF
KAXN 190521Z 1906/2006 17013KT P6SM BKN150
     FM191000 18016G22KT P6SM SCT011 OVC090
      TEMPO 1910/1913 BKN011
     FM191300 18015G22KT P6SM -SHRA OVC011
     FM191800 19014G20KT P6SM VCSH SCT015 OVC035
     FM192300 21012KT P6SM BKN045=

USA.gov is the U.S. government's official web portal to all federal, state and local government web resources and services.